Time;durP1;ratioP1;P1;durP2;ratioP2;P2;SDS_P1;SDS_P2;PMS_P1;PMS_P2;Temp;Humidity;BMP_temperature;BMP_pressure;BME280_temperature;BME280_humidity;BME280_pressure;Samples;Min_cycle;Max_cycle;Signal;HPM_P1;HPM_P2
2022/05/02 00:05:46;;;;;;;5.65;2.40;;;;;;;;;;5014751;28;20051;-84
2022/05/02 00:09:32;;;;;;;4.97;2.60;;;;;;;;;;5014139;28;20135;-85
2022/05/02 00:12:34;;;;;;;6.65;2.47;;;;;;;;;;5014744;28;20089;-83
2022/05/02 00:15:02;;;;;;;4.60;2.67;;;;;;;;;;5031670;28;20104;-82
2022/05/02 00:20:16;;;;;;;6.43;2.80;;;;;;;;;;5036084;28;20057;-83
2022/05/02 00:22:46;;;;;;;6.07;2.67;;;;;;;;;;5034750;28;20055;-83
2022/05/02 00:25:18;;;;;;;5.00;2.65;;;;;;;;;;5038674;28;20053;-82
2022/05/02 00:27:47;;;;;;;4.97;2.42;;;;;;;;;;5033261;28;20053;-83
2022/05/02 00:30:15;;;;;;;6.43;2.65;;;;;;;;;;5036363;28;20580;-83
2022/05/02 00:32:44;;;;;;;8.57;2.55;;;;;;;;;;5040229;28;20045;-83
2022/05/02 00:35:13;;;;;;;6.72;2.50;;;;;;;;;;5038508;28;20411;-83
2022/05/02 00:37:42;;;;;;;5.35;2.40;;;;;;;;;;5036701;28;20071;-84
2022/05/02 00:40:12;;;;;;;7.85;2.63;;;;;;;;;;5023809;28;20258;-83
2022/05/02 00:42:43;;;;;;;6.43;2.05;;;;;;;;;;5048899;28;20056;-83
2022/05/02 00:45:15;;;;;;;5.40;2.28;;;;;;;;;;5060763;28;20064;-83
2022/05/02 00:47:54;;;;;;;3.92;2.15;;;;;;;;;;5046723;28;20148;-82
2022/05/02 00:50:37;;;;;;;6.22;2.28;;;;;;;;;;5063861;28;20065;-83
2022/05/02 05:16:24;;;;;;;6.78;3.53;;;;;;;;;;5036519;28;20045;-82
2022/05/02 05:19:02;;;;;;;8.65;3.97;;;;;;;;;;5043539;28;20048;-83
2022/05/02 05:22:17;;;;;;;4.90;3.20;;;;;;;;;;5039507;28;20126;-83
2022/05/02 05:25:05;;;;;;;6.05;3.53;;;;;;;;;;5004800;28;20053;-82
2022/05/02 05:27:57;;;;;;;7.10;3.33;;;;;;;;;;4997348;28;20285;-83
2022/05/02 05:30:31;;;;;;;8.57;3.70;;;;;;;;;;5005256;28;20057;-84
2022/05/02 05:33:43;;;;;;;9.43;3.47;;;;;;;;;;5007620;28;20049;-83
2022/05/02 05:36:37;;;;;;;10.65;4.82;;;;;;;;;;5004085;28;20053;-85
2022/05/02 05:39:49;;;;;;;10.35;4.53;;;;;;;;;;5004439;28;21019;-85
2022/05/02 05:42:28;;;;;;;10.70;5.05;;;;;;;;;;5006815;28;20050;-83
2022/05/02 05:45:05;;;;;;;7.88;4.93;;;;;;;;;;5008201;28;20050;-83
2022/05/02 05:47:52;;;;;;;8.38;4.78;;;;;;;;;;5007167;28;20105;-83
2022/05/02 05:50:29;;;;;;;5.85;3.78;;;;;;;;;;5009179;28;20053;-84
2022/05/02 05:53:07;;;;;;;7.00;4.10;;;;;;;;;;5011182;28;20162;-84
2022/05/02 05:55:54;;;;;;;7.75;4.40;;;;;;;;;;5008511;28;20081;-84
2022/05/02 05:58:28;;;;;;;7.35;4.03;;;;;;;;;;4989651;28;20197;-84
2022/05/02 06:01:11;;;;;;;9.18;4.47;;;;;;;;;;5033386;28;20053;-84
2022/05/02 06:04:07;;;;;;;6.55;3.75;;;;;;;;;;5043510;28;20115;-84
2022/05/02 06:06:36;;;;;;;10.18;3.90;;;;;;;;;;5041034;28;20132;-84
2022/05/02 06:09:06;;;;;;;6.28;3.00;;;;;;;;;;5044034;28;20100;-84
2022/05/02 06:11:35;;;;;;;6.05;2.95;;;;;;;;;;5067991;28;20966;-84
2022/05/02 06:14:04;;;;;;;8.98;2.97;;;;;;;;;;5058577;28;20044;-84
2022/05/02 06:19:25;;;;;;;7.90;2.72;;;;;;;;;;5083645;28;20094;-84
2022/05/02 06:21:55;;;;;;;6.47;2.83;;;;;;;;;;5081610;28;20039;-84
2022/05/02 06:24:26;;;;;;;5.70;2.78;;;;;;;;;;5080899;28;20048;-84
2022/05/02 06:26:55;;;;;;;11.95;4.20;;;;;;;;;;5080676;28;20044;-84
2022/05/02 06:29:24;;;;;;;8.68;4.13;;;;;;;;;;5066161;28;20545;-84
2022/05/02 06:31:54;;;;;;;5.80;3.28;;;;;;;;;;5074689;28;20051;-84
2022/05/02 06:34:25;;;;;;;8.75;3.30;;;;;;;;;;5064973;28;20066;-84
2022/05/02 06:37:13;;;;;;;6.40;3.40;;;;;;;;;;5060869;28;20147;-84
2022/05/02 06:40:05;;;;;;;5.35;2.72;;;;;;;;;;5076719;28;20052;-84
2022/05/02 06:42:58;;;;;;;6.00;2.90;;;;;;;;;;5073339;28;20079;-84
2022/05/02 06:45:54;;;;;;;5.05;2.60;;;;;;;;;;5077501;28;20086;-85
2022/05/02 06:48:58;;;;;;;3.80;2.00;;;;;;;;;;5065579;28;20134;-83
2022/05/02 06:51:36;;;;;;;3.17;1.42;;;;;;;;;;5070275;28;20048;-84
2022/05/02 06:54:16;;;;;;;4.32;1.60;;;;;;;;;;5076593;28;20059;-84
2022/05/02 06:57:18;;;;;;;2.92;1.60;;;;;;;;;;5071575;28;20048;-84
2022/05/02 07:00:06;;;;;;;4.32;1.40;;;;;;;;;;5074381;28;20131;-84
2022/05/02 07:03:10;;;;;;;4.07;1.50;;;;;;;;;;5077161;28;20918;-84
2022/05/02 07:06:15;;;;;;;3.80;1.70;;;;;;;;;;5072931;28;20045;-83
2022/05/02 07:09:16;;;;;;;2.67;1.27;;;;;;;;;;5072206;28;20044;-85
2022/05/02 07:13:01;;;;;;;2.85;1.45;;;;;;;;;;5041768;28;20127;-85
2022/05/02 07:15:42;;;;;;;2.85;1.48;;;;;;;;;;5050024;28;20056;-84
2022/05/02 07:18:29;;;;;;;2.35;1.30;;;;;;;;;;5040644;28;20091;-84
2022/05/02 07:21:23;;;;;;;3.40;1.70;;;;;;;;;;5051804;28;20163;-84
2022/05/02 07:24:09;;;;;;;4.32;1.50;;;;;;;;;;5055138;28;20060;-84
2022/05/02 07:26:41;;;;;;;2.88;1.50;;;;;;;;;;5056164;28;20425;-83
2022/05/02 07:29:33;;;;;;;3.45;1.70;;;;;;;;;;5038362;28;20064;-83
2022/05/02 07:32:21;;;;;;;4.05;1.55;;;;;;;;;;5045216;28;20056;-85
2022/05/02 07:35:03;;;;;;;2.45;1.35;;;;;;;;;;5043913;28;20048;-84
2022/05/02 07:37:46;;;;;;;3.10;1.80;;;;;;;;;;5026715;28;20083;-84
2022/05/02 07:40:21;;;;;;;3.75;1.77;;;;;;;;;;5052221;28;20057;-84
2022/05/02 07:42:52;;;;;;;4.95;1.85;;;;;;;;;;5048435;28;20147;-85
2022/05/02 07:45:28;;;;;;;6.53;1.80;;;;;;;;;;5053384;28;20070;-84
2022/05/02 07:48:12;;;;;;;4.10;1.92;;;;;;;;;;5026615;28;20044;-83
2022/05/02 07:51:03;;;;;;;3.65;2.20;;;;;;;;;;5038079;28;20114;-83
2022/05/02 07:54:00;;;;;;;2.92;1.48;;;;;;;;;;5010303;28;20059;-83
2022/05/02 07:56:43;;;;;;;4.95;2.10;;;;;;;;;;5055094;28;20072;-84
2022/05/02 08:00:00;;;;;;;4.03;1.90;;;;;;;;;;5074800;28;20064;-83
2022/05/02 08:02:49;;;;;;;4.78;2.10;;;;;;;;;;5081687;28;21345;-83
2022/05/02 08:05:34;;;;;;;4.18;1.88;;;;;;;;;;5059937;28;20422;-84
2022/05/02 08:08:14;;;;;;;5.15;2.15;;;;;;;;;;5065825;28;20068;-84
2022/05/02 08:11:18;;;;;;;6.75;2.35;;;;;;;;;;5070650;28;20830;-84
2022/05/02 08:14:06;;;;;;;4.63;2.17;;;;;;;;;;5057486;28;20137;-84
2022/05/02 08:17:02;;;;;;;3.95;2.00;;;;;;;;;;5058124;28;20481;-84
2022/05/02 08:19:57;;;;;;;4.88;2.08;;;;;;;;;;5052168;28;20043;-84
2022/05/02 08:29:44;;;;;;;5.30;2.70;;;;;;;;;;5077456;28;20056;-85
2022/05/02 08:33:35;;;;;;;4.75;2.63;;;;;;;;;;5060965;28;20468;-83
2022/05/02 08:36:47;;;;;;;4.10;2.50;;;;;;;;;;5075572;28;20358;-84
2022/05/02 08:39:48;;;;;;;6.00;2.63;;;;;;;;;;5076244;28;20059;-84
2022/05/02 08:42:21;;;;;;;5.07;2.60;;;;;;;;;;5058186;28;20063;-85
2022/05/02 08:45:26;;;;;;;9.07;3.47;;;;;;;;;;5077344;28;20048;-84
2022/05/02 08:49:32;;;;;;;8.55;3.42;;;;;;;;;;5066772;28;20056;-85
2022/05/02 08:52:21;;;;;;;4.78;2.97;;;;;;;;;;5079150;28;20544;-85
2022/05/02 08:55:35;;;;;;;5.45;2.83;;;;;;;;;;5076976;28;20650;-85
2022/05/02 08:58:57;;;;;;;5.85;3.03;;;;;;;;;;5065534;28;20054;-85
2022/05/02 09:01:44;;;;;;;6.30;2.88;;;;;;;;;;5063962;28;20095;-85
2022/05/02 09:04:35;;;;;;;6.93;3.28;;;;;;;;;;5064769;28;20103;-84
2022/05/02 09:07:35;;;;;;;7.13;3.08;;;;;;;;;;5080161;28;20041;-84
2022/05/02 09:10:56;;;;;;;9.20;3.17;;;;;;;;;;5061239;28;20494;-84
2022/05/02 09:14:17;;;;;;;7.22;3.63;;;;;;;;;;5073138;28;20399;-84
2022/05/02 09:17:25;;;;;;;4.95;2.90;;;;;;;;;;5024019;28;20138;-84
2022/05/02 09:20:24;;;;;;;6.63;3.75;;;;;;;;;;5023143;28;20087;-83
2022/05/02 09:23:34;;;;;;;7.20;3.17;;;;;;;;;;5022021;28;20133;-85
2022/05/02 09:26:23;;;;;;;8.93;3.60;;;;;;;;;;5006994;28;20045;-85
2022/05/02 09:29:24;;;;;;;6.32;3.88;;;;;;;;;;5039508;28;20695;-84
2022/05/02 09:32:16;;;;;;;5.35;2.88;;;;;;;;;;5023507;28;20099;-85
2022/05/02 09:35:03;;;;;;;8.85;4.13;;;;;;;;;;5027012;28;20049;-84
2022/05/02 09:38:29;;;;;;;8.52;3.78;;;;;;;;;;5025719;28;20449;-85
2022/05/02 09:41:37;;;;;;;6.63;3.85;;;;;;;;;;5024462;28;20076;-85
2022/05/02 09:51:12;;;;;;;7.50;4.03;;;;;;;;;;5024624;28;20049;-84
2022/05/02 09:58:18;;;;;;;7.25;3.97;;;;;;;;;;5075834;28;20052;-84
2022/05/02 10:01:26;;;;;;;7.50;4.00;;;;;;;;;;5059231;28;20059;-84
2022/05/02 10:04:20;;;;;;;6.15;4.00;;;;;;;;;;5076811;28;20060;-85
2022/05/02 10:07:07;;;;;;;9.07;4.32;;;;;;;;;;5076748;28;20416;-84
2022/05/02 10:10:01;;;;;;;10.02;4.28;;;;;;;;;;5073899;28;20465;-85
2022/05/02 10:13:51;;;;;;;5.95;4.00;;;;;;;;;;5068752;28;20201;-83
2022/05/02 10:17:10;;;;;;;10.07;4.15;;;;;;;;;;5076109;28;20458;-85
2022/05/02 10:20:04;;;;;;;8.45;4.93;;;;;;;;;;5060881;28;20462;-85
2022/05/02 10:23:22;;;;;;;6.97;3.92;;;;;;;;;;5060948;28;20060;-85
2022/05/02 10:26:40;;;;;;;7.72;4.70;;;;;;;;;;5046473;28;20853;-85
2022/05/02 10:29:42;;;;;;;6.03;4.32;;;;;;;;;;5084437;28;20049;-84
2022/05/02 10:32:50;;;;;;;6.60;4.22;;;;;;;;;;5089224;27;20484;-85
2022/05/02 10:36:23;;;;;;;7.20;4.25;;;;;;;;;;5053071;28;20137;-84
2022/05/02 10:39:50;;;;;;;6.40;3.92;;;;;;;;;;5045512;28;20057;-84
2022/05/02 10:43:14;;;;;;;9.02;4.30;;;;;;;;;;5050716;28;20175;-85
2022/05/02 10:45:59;;;;;;;6.53;4.03;;;;;;;;;;5058396;28;20052;-85
2022/05/02 10:48:40;;;;;;;6.82;4.20;;;;;;;;;;5052610;28;20056;-84
2022/05/02 10:52:00;;;;;;;6.40;4.10;;;;;;;;;;5041892;28;20079;-85
2022/05/02 10:55:23;;;;;;;8.85;4.60;;;;;;;;;;5052633;28;20075;-85
2022/05/02 10:58:35;;;;;;;8.55;4.38;;;;;;;;;;5042574;28;20067;-85
2022/05/02 11:01:47;;;;;;;7.68;4.47;;;;;;;;;;5039966;28;20154;-84
2022/05/02 11:05:48;;;;;;;6.40;4.03;;;;;;;;;;5046258;28;20056;-83
2022/05/02 11:08:44;;;;;;;7.03;4.57;;;;;;;;;;5077391;28;20047;-84
2022/05/02 11:12:01;;;;;;;8.38;3.95;;;;;;;;;;5086804;27;20072;-85
2022/05/02 11:15:27;;;;;;;7.15;4.00;;;;;;;;;;5077323;28;20142;-83
2022/05/02 11:21:40;;;;;;;6.63;4.35;;;;;;;;;;5076166;28;20048;-85
2022/05/02 11:24:42;;;;;;;7.22;3.72;;;;;;;;;;5081775;28;20058;-84
2022/05/02 11:27:21;;;;;;;8.82;4.10;;;;;;;;;;5075925;28;20127;-85
2022/05/02 11:30:02;;;;;;;9.00;3.88;;;;;;;;;;5073903;28;20530;-85
2022/05/02 11:32:42;;;;;;;9.43;4.30;;;;;;;;;;5076106;28;20055;-85
2022/05/02 11:35:21;;;;;;;7.30;4.80;;;;;;;;;;5063236;28;20484;-85
2022/05/02 11:38:12;;;;;;;6.22;4.45;;;;;;;;;;5078021;28;20040;-85
2022/05/02 11:40:51;;;;;;;6.70;3.78;;;;;;;;;;5060451;28;20060;-85
2022/05/02 11:43:36;;;;;;;7.95;4.55;;;;;;;;;;5062307;28;20039;-85
2022/05/02 11:46:15;;;;;;;8.68;4.50;;;;;;;;;;5058706;28;20162;-85
2022/05/02 11:49:04;;;;;;;9.38;4.00;;;;;;;;;;5077363;28;20062;-85
2022/05/02 11:51:45;;;;;;;6.10;4.50;;;;;;;;;;5061154;28;20063;-85
2022/05/02 11:54:26;;;;;;;7.28;4.15;;;;;;;;;;5091260;28;20139;-85
2022/05/02 11:57:17;;;;;;;6.35;4.05;;;;;;;;;;5074074;28;20075;-85
2022/05/02 12:00:32;;;;;;;7.10;4.15;;;;;;;;;;5057831;28;20510;-85
2022/05/02 12:03:16;;;;;;;7.07;3.83;;;;;;;;;;5058673;28;20156;-84
2022/05/02 12:06:02;;;;;;;6.55;4.43;;;;;;;;;;5061633;28;20067;-84
2022/05/02 12:08:34;;;;;;;6.25;4.18;;;;;;;;;;5072835;28;20048;-85
2022/05/02 12:11:05;;;;;;;7.88;3.47;;;;;;;;;;5076406;28;20554;-85
2022/05/02 12:13:36;;;;;;;7.10;3.67;;;;;;;;;;5059451;28;20062;-85
2022/05/02 12:16:09;;;;;;;7.80;3.72;;;;;;;;;;5074939;28;20155;-85
2022/05/02 12:18:42;;;;;;;8.23;3.83;;;;;;;;;;5042166;28;20643;-85
2022/05/02 12:21:24;;;;;;;6.53;4.03;;;;;;;;;;5075936;28;20048;-85
2022/05/02 12:23:55;;;;;;;6.90;3.78;;;;;;;;;;5079677;28;20079;-85
2022/05/02 12:26:25;;;;;;;8.13;3.80;;;;;;;;;;5077855;28;20045;-85
2022/05/02 12:29:04;;;;;;;6.70;3.90;;;;;;;;;;5065936;28;20093;-85
2022/05/02 12:31:34;;;;;;;8.02;4.03;;;;;;;;;;5080574;28;20532;-85
2022/05/02 12:34:12;;;;;;;8.75;4.03;;;;;;;;;;5082865;28;20043;-85
2022/05/02 12:36:47;;;;;;;6.78;4.30;;;;;;;;;;5077857;28;20036;-85
2022/05/02 12:39:28;;;;;;;6.63;3.85;;;;;;;;;;5076038;28;20050;-85
2022/05/02 12:42:17;;;;;;;6.70;4.60;;;;;;;;;;5078824;28;20067;-85
2022/05/02 12:44:56;;;;;;;6.80;4.60;;;;;;;;;;5080764;28;20052;-85
2022/05/02 12:47:39;;;;;;;5.90;3.75;;;;;;;;;;5060561;28;20113;-85
2022/05/02 12:50:17;;;;;;;6.65;4.00;;;;;;;;;;5078592;28;20051;-85
2022/05/02 12:52:46;;;;;;;5.78;3.55;;;;;;;;;;5079589;28;20052;-85
2022/05/02 12:55:34;;;;;;;10.18;4.57;;;;;;;;;;5068617;28;20060;-83
2022/05/02 13:01:25;;;;;;;6.15;3.80;;;;;;;;;;5079274;28;20055;-85
2022/05/02 13:05:17;;;;;;;6.80;4.57;;;;;;;;;;5083058;28;20048;-83
2022/05/02 13:09:12;;;;;;;9.43;4.35;;;;;;;;;;5079357;28;20513;-83
2022/05/02 13:11:46;;;;;;;8.10;3.97;;;;;;;;;;5055964;28;20052;-84
2022/05/02 13:14:23;;;;;;;7.50;4.30;;;;;;;;;;5060422;28;20050;-84
2022/05/02 13:16:53;;;;;;;7.53;4.35;;;;;;;;;;5045186;28;20035;-84
2022/05/02 13:19:34;;;;;;;6.97;4.40;;;;;;;;;;5080679;28;20048;-83
2022/05/02 13:22:02;;;;;;;6.15;4.00;;;;;;;;;;5075327;28;20053;-83
2022/05/02 13:24:32;;;;;;;7.10;4.03;;;;;;;;;;5078474;28;20050;-83
2022/05/02 13:27:07;;;;;;;8.32;4.28;;;;;;;;;;5064482;28;20052;-83
2022/05/02 13:29:49;;;;;;;7.20;4.55;;;;;;;;;;5078481;28;20149;-83
2022/05/02 13:32:23;;;;;;;6.43;3.97;;;;;;;;;;5077230;28;20073;-84
2022/05/02 13:35:11;;;;;;;7.43;4.20;;;;;;;;;;5075449;28;20101;-84
2022/05/02 13:38:14;;;;;;;9.80;4.40;;;;;;;;;;5075053;28;20056;-84
2022/05/02 13:41:03;;;;;;;10.57;4.60;;;;;;;;;;5080433;28;20048;-84
2022/05/02 13:44:22;;;;;;;8.02;4.32;;;;;;;;;;5061462;28;20056;-84
2022/05/02 13:47:12;;;;;;;8.27;4.57;;;;;;;;;;5071306;28;20050;-84
2022/05/02 13:50:05;;;;;;;7.25;4.28;;;;;;;;;;5093174;27;20122;-85
2022/05/02 13:53:03;;;;;;;12.30;4.55;;;;;;;;;;5060171;28;20068;-84
2022/05/02 13:56:10;;;;;;;14.40;4.22;;;;;;;;;;5063819;28;20051;-84
2022/05/02 13:58:52;;;;;;;8.82;4.30;;;;;;;;;;5076916;28;20054;-84
2022/05/02 14:01:35;;;;;;;7.15;3.80;;;;;;;;;;5073123;28;20498;-84
2022/05/02 14:04:35;;;;;;;6.18;3.95;;;;;;;;;;5079438;28;20040;-84
2022/05/02 14:07:09;;;;;;;8.07;4.32;;;;;;;;;;5082665;28;20044;-84
2022/05/02 14:09:59;;;;;;;14.25;6.97;;;;;;;;;;5061995;28;20048;-85
2022/05/02 14:13:21;;;;;;;8.80;4.63;;;;;;;;;;5059679;28;20060;-83
2022/05/02 14:16:09;;;;;;;8.55;4.07;;;;;;;;;;5076288;28;20063;-84
2022/05/02 14:18:58;;;;;;;5.28;3.95;;;;;;;;;;5051814;28;20048;-84
2022/05/02 14:21:44;;;;;;;7.93;3.72;;;;;;;;;;5073216;28;20544;-83
2022/05/02 14:25:41;;;;;;;8.32;3.53;;;;;;;;;;5055520;28;20502;-86
2022/05/02 14:28:25;;;;;;;7.32;3.83;;;;;;;;;;4945100;28;20085;-84
2022/05/02 14:31:03;;;;;;;5.07;3.28;;;;;;;;;;4959285;28;20523;-84
2022/05/02 14:33:40;;;;;;;7.03;3.63;;;;;;;;;;4959097;28;20540;-84
2022/05/02 14:36:30;;;;;;;7.80;3.60;;;;;;;;;;4946599;28;20065;-83
2022/05/02 14:39:33;;;;;;;8.15;3.92;;;;;;;;;;4947812;28;20116;-84
2022/05/02 14:42:39;;;;;;;5.47;3.75;;;;;;;;;;4941940;28;20517;-83
2022/05/02 14:45:13;;;;;;;7.78;4.10;;;;;;;;;;4959169;28;20051;-84
2022/05/02 14:47:42;;;;;;;8.80;4.10;;;;;;;;;;4961193;28;20126;-84
2022/05/02 14:51:07;;;;;;;6.30;3.60;;;;;;;;;;4929548;28;20129;-85
2022/05/02 14:54:30;;;;;;;7.68;4.10;;;;;;;;;;4957189;28;20051;-85
2022/05/02 14:57:36;;;;;;;5.68;3.30;;;;;;;;;;4963779;28;20201;-85
2022/05/02 15:00:28;;;;;;;6.55;3.70;;;;;;;;;;4982740;28;20061;-86
2022/05/02 15:03:17;;;;;;;5.43;3.63;;;;;;;;;;5052838;28;20404;-85
2022/05/02 15:07:19;;;;;;;6.82;3.50;;;;;;;;;;5076189;28;20063;-84
2022/05/02 15:10:41;;;;;;;5.47;3.20;;;;;;;;;;5076322;28;20386;-84
2022/05/02 15:14:24;;;;;;;6.95;3.85;;;;;;;;;;5064900;28;20079;-84
2022/05/02 15:18:14;;;;;;;8.32;3.20;;;;;;;;;;5080964;27;20048;-84
2022/05/02 15:21:03;;;;;;;5.47;3.30;;;;;;;;;;5074870;28;20063;-84
2022/05/02 15:23:45;;;;;;;6.22;3.38;;;;;;;;;;5062318;28;20072;-84
2022/05/02 15:26:50;;;;;;;6.05;3.47;;;;;;;;;;5059092;28;20056;-84
2022/05/02 15:38:53;;;;;;;4.43;2.40;;;;;;;;;;5063345;28;20059;-85
2022/05/02 15:41:41;;;;;;;5.30;2.63;;;;;;;;;;5058551;28;20052;-84
2022/05/02 15:44:23;;;;;;;5.10;2.83;;;;;;;;;;5085418;27;20051;-85
2022/05/02 15:47:34;;;;;;;7.57;2.90;;;;;;;;;;5080586;28;20179;-85
2022/05/02 15:51:23;;;;;;;6.45;2.83;;;;;;;;;;5067522;28;20298;-85
2022/05/02 15:54:53;;;;;;;7.72;2.60;;;;;;;;;;4998434;28;20103;-85
2022/05/02 15:59:40;;;;;;;5.85;2.30;;;;;;;;;;4975320;28;20047;-85
2022/05/02 16:03:40;;;;;;;4.55;2.42;;;;;;;;;;4911699;29;20052;-85
2022/05/02 16:11:26;;;;;;;5.82;2.50;;;;;;;;;;4913304;29;20198;-84
2022/05/02 16:15:15;;;;;;;6.18;2.22;;;;;;;;;;4868707;29;20050;-84
2022/05/02 16:17:48;;;;;;;4.85;2.08;;;;;;;;;;4850000;29;20049;-84
2022/05/02 16:20:16;;;;;;;3.67;2.05;;;;;;;;;;4869598;29;20140;-85
2022/05/02 16:22:44;;;;;;;6.05;2.20;;;;;;;;;;4869542;29;20056;-85
2022/05/02 16:25:21;;;;;;;4.30;2.50;;;;;;;;;;4866193;29;20060;-84
2022/05/02 16:27:51;;;;;;;7.97;2.40;;;;;;;;;;4869331;29;20068;-86
2022/05/02 16:30:33;;;;;;;4.00;2.33;;;;;;;;;;4889947;29;20068;-83
2022/05/02 16:33:37;;;;;;;5.05;2.20;;;;;;;;;;4913319;29;20087;-83
2022/05/02 16:36:40;;;;;;;7.18;2.20;;;;;;;;;;4923194;29;20132;-82
2022/05/02 16:39:10;;;;;;;4.30;2.28;;;;;;;;;;4926057;29;20428;-84
2022/05/02 16:41:42;;;;;;;4.35;2.40;;;;;;;;;;4925753;29;20142;-84
2022/05/02 16:44:23;;;;;;;4.88;1.83;;;;;;;;;;4959416;28;20058;-83
2022/05/02 16:47:05;;;;;;;4.18;2.35;;;;;;;;;;5020073;28;20199;-83
2022/05/02 16:49:48;;;;;;;3.97;1.95;;;;;;;;;;5004314;28;20201;-83
2022/05/02 16:52:37;;;;;;;3.78;2.03;;;;;;;;;;5004613;28;20053;-82
2022/05/02 16:55:05;;;;;;;3.67;1.88;;;;;;;;;;5020489;28;20107;-82
2022/05/02 16:57:38;;;;;;;3.78;1.98;;;;;;;;;;5020171;28;20096;-82
2022/05/02 17:00:55;;;;;;;3.53;1.90;;;;;;;;;;5019854;28;20561;-82
2022/05/02 17:04:17;;;;;;;3.30;1.95;;;;;;;;;;4944444;28;20070;-83
2022/05/02 17:07:00;;;;;;;4.68;2.00;;;;;;;;;;4936428;28;20066;-83
2022/05/02 17:09:34;;;;;;;3.67;1.90;;;;;;;;;;4961567;28;20067;-84
2022/05/02 17:12:16;;;;;;;5.47;2.72;;;;;;;;;;4951122;28;20069;-83
2022/05/02 17:15:18;;;;;;;3.85;1.80;;;;;;;;;;4962159;28;20150;-85
2022/05/02 17:33:28;;;;;;;3.22;1.17;;;;;;;;;;4928464;29;20078;-87
2022/05/02 17:47:23;;;;;;;2.78;0.80;;;;;;;;;;4983724;28;20137;-84
2022/05/02 17:52:02;;;;;;;2.97;1.02;;;;;;;;;;4924190;29;20144;-85
2022/05/02 17:56:34;;;;;;;1.65;0.90;;;;;;;;;;4945440;28;20055;-84
2022/05/02 18:00:51;;;;;;;1.75;0.80;;;;;;;;;;4868633;29;20056;-84
2022/05/02 18:04:54;;;;;;;3.00;0.95;;;;;;;;;;4825242;29;20057;-84
2022/05/02 18:09:47;;;;;;;1.50;0.68;;;;;;;;;;4809085;29;20054;-85
2022/05/02 18:14:14;;;;;;;1.98;0.70;;;;;;;;;;4768689;30;20055;-85
2022/05/02 18:18:32;;;;;;;2.20;0.70;;;;;;;;;;4767210;29;20086;-85
2022/05/02 18:21:19;;;;;;;2.20;0.70;;;;;;;;;;4784625;29;20067;-86
2022/05/02 18:28:32;;;;;;;0.70;0.50;;;;;;;;;;4775596;29;20055;-83
2022/05/02 18:31:25;;;;;;;;;;;;;;;;;;4812066;29;20145;-83
2022/05/02 18:34:11;;;;;;;2.10;0.88;;;;;;;;;;4808789;29;20071;-83
2022/05/02 18:36:51;;;;;;;1.75;0.70;;;;;;;;;;4798592;29;20859;-84
2022/05/02 18:39:28;;;;;;;1.02;0.63;;;;;;;;;;4798671;29;20394;-84
2022/05/02 18:42:06;;;;;;;3.40;0.88;;;;;;;;;;4800706;29;20208;-84
2022/05/02 18:54:22;;;;;;;1.70;0.68;;;;;;;;;;4878669;29;20854;-84
2022/05/02 18:56:55;;;;;;;1.33;0.55;;;;;;;;;;4946994;28;20055;-85
2022/05/02 19:01:16;;;;;;;1.83;0.60;;;;;;;;;;4960067;28;20062;-85
2022/05/02 19:05:00;;;;;;;1.13;0.63;;;;;;;;;;4955007;28;20474;-86
2022/05/02 19:08:31;;;;;;;0.85;0.55;;;;;;;;;;4938579;28;20118;-84
2022/05/02 19:11:42;;;;;;;1.67;0.60;;;;;;;;;;4964887;28;20058;-84
2022/05/02 19:15:43;;;;;;;1.27;0.60;;;;;;;;;;4958313;28;20087;-85
2022/05/02 19:18:54;;;;;;;1.10;0.60;;;;;;;;;;4932988;28;20047;-84
2022/05/02 19:22:38;;;;;;;3.85;1.00;;;;;;;;;;4926748;29;20134;-84
2022/05/02 19:26:19;;;;;;;1.95;0.80;;;;;;;;;;4929384;28;20059;-84
2022/05/02 19:30:24;;;;;;;1.45;0.70;;;;;;;;;;4889409;29;20089;-84
2022/05/02 19:33:04;;;;;;;1.83;0.65;;;;;;;;;;4856908;29;20068;-82
2022/05/02 19:41:29;;;;;;;1.58;0.70;;;;;;;;;;4889235;29;20130;-82
2022/05/02 19:44:25;;;;;;;1.10;0.50;;;;;;;;;;4888917;29;20070;-82
2022/05/02 19:47:08;;;;;;;1.50;0.50;;;;;;;;;;4902772;29;20055;-82
2022/05/02 19:49:37;;;;;;;2.63;0.70;;;;;;;;;;4942971;29;20065;-81
2022/05/02 19:52:07;;;;;;;1.65;0.73;;;;;;;;;;4965066;28;20100;-82
2022/05/02 19:54:39;;;;;;;0.75;0.45;;;;;;;;;;4984590;28;20045;-81
2022/05/02 19:57:12;;;;;;;1.42;0.68;;;;;;;;;;5003477;28;20068;-81
2022/05/02 19:59:43;;;;;;;1.48;0.70;;;;;;;;;;4999854;28;20094;-82
2022/05/02 20:02:14;;;;;;;0.93;0.50;;;;;;;;;;5053849;28;20527;-82
2022/05/02 20:04:45;;;;;;;1.67;0.60;;;;;;;;;;5075116;28;20065;-82
2022/05/02 20:07:21;;;;;;;1.23;0.45;;;;;;;;;;5078529;28;20055;-81
2022/05/02 20:09:51;;;;;;;2.03;0.50;;;;;;;;;;5063531;28;20145;-81
2022/05/02 20:12:19;;;;;;;2.45;0.65;;;;;;;;;;5062856;28;20486;-83
2022/05/02 20:14:47;;;;;;;1.30;0.50;;;;;;;;;;5078810;28;20044;-83
2022/05/02 20:17:15;;;;;;;1.15;0.60;;;;;;;;;;5077962;28;20422;-82
2022/05/02 20:19:43;;;;;;;1.38;0.70;;;;;;;;;;5095305;28;20063;-82
2022/05/02 20:22:12;;;;;;;2.25;0.57;;;;;;;;;;5077992;28;20048;-81
2022/05/02 20:24:39;;;;;;;1.52;0.70;;;;;;;;;;5077752;28;20051;-81
2022/05/02 20:27:07;;;;;;;1.02;0.55;;;;;;;;;;5077674;28;20048;-81
2022/05/02 20:29:35;;;;;;;1.48;0.80;;;;;;;;;;5077842;28;20052;-81
2022/05/02 20:37:37;;;;;;;2.88;0.98;;;;;;;;;;5063366;28;20075;-80
2022/05/02 20:40:06;;;;;;;1.85;0.80;;;;;;;;;;5076331;28;20044;-81
2022/05/02 20:42:38;;;;;;;1.95;0.80;;;;;;;;;;5063867;28;20059;-81
2022/05/02 20:45:14;;;;;;;1.92;0.80;;;;;;;;;;5082332;28;20049;-81
2022/05/02 20:47:51;;;;;;;3.72;0.80;;;;;;;;;;5065370;28;20048;-81
2022/05/02 20:50:21;;;;;;;1.58;0.70;;;;;;;;;;5084338;28;20105;-81
2022/05/02 20:52:52;;;;;;;1.83;0.80;;;;;;;;;;5082479;28;20094;-81
2022/05/02 20:55:20;;;;;;;1.25;0.70;;;;;;;;;;5083936;28;20044;-81
2022/05/02 20:57:48;;;;;;;2.53;0.70;;;;;;;;;;5080107;28;20039;-81
2022/05/02 21:00:17;;;;;;;1.83;0.98;;;;;;;;;;5080966;28;20673;-81
2022/05/02 21:02:48;;;;;;;1.67;0.80;;;;;;;;;;5080984;28;20058;-82
2022/05/02 21:05:16;;;;;;;2.25;0.93;;;;;;;;;;5083101;28;20052;-82
2022/05/02 21:07:44;;;;;;;4.00;0.80;;;;;;;;;;5079225;28;20052;-82
2022/05/02 21:10:12;;;;;;;2.10;0.93;;;;;;;;;;5082152;28;20071;-82
2022/05/02 21:13:07;;;;;;;1.88;0.90;;;;;;;;;;5081820;28;20118;-82
2022/05/02 21:15:51;;;;;;;1.48;0.82;;;;;;;;;;5079000;28;20071;-82
2022/05/02 21:18:34;;;;;;;2.70;1.00;;;;;;;;;;5084330;28;20033;-81
2022/05/02 21:21:03;;;;;;;2.65;1.20;;;;;;;;;;5082678;28;20489;-81
2022/05/02 21:24:04;;;;;;;1.83;0.98;;;;;;;;;;5082060;28;20040;-81
2022/05/02 22:54:15;;;;;;;5.25;1.52;;;;;;;;;;5079761;28;20052;-82
2022/05/02 22:56:50;;;;;;;4.68;1.38;;;;;;;;;;5078130;28;20131;-82
2022/05/02 22:59:23;;;;;;;2.63;1.30;;;;;;;;;;5080583;28;20051;-82
2022/05/02 23:01:56;;;;;;;3.30;1.45;;;;;;;;;;5101746;22;20063;-87
2022/05/02 23:04:27;;;;;;;2.60;1.20;;;;;;;;;;5094930;28;20087;-93
2022/05/02 23:07:02;;;;;;;2.25;1.20;;;;;;;;;;5054786;28;20563;-78
2022/05/02 23:09:34;;;;;;;5.70;1.33;;;;;;;;;;5055860;28;20057;-77
2022/05/02 23:12:03;;;;;;;3.17;1.30;;;;;;;;;;5057576;28;20052;-77
2022/05/02 23:14:31;;;;;;;2.55;1.30;;;;;;;;;;5054083;28;20059;-77
2022/05/02 23:16:59;;;;;;;5.68;1.42;;;;;;;;;;5054715;28;20041;-77
2022/05/02 23:19:29;;;;;;;2.35;1.15;;;;;;;;;;5054957;28;20128;-77
2022/05/02 23:22:00;;;;;;;3.10;1.40;;;;;;;;;;5062617;28;20075;-77
2022/05/02 23:24:28;;;;;;;3.40;1.40;;;;;;;;;;5057648;28;20056;-78
2022/05/02 23:26:55;;;;;;;2.00;1.20;;;;;;;;;;5057256;28;20053;-78
2022/05/02 23:29:23;;;;;;;3.22;1.30;;;;;;;;;;5055877;28;20056;-78
2022/05/02 23:32:06;;;;;;;2.58;1.23;;;;;;;;;;5055061;28;20382;-77
2022/05/02 23:34:56;;;;;;;4.22;1.33;;;;;;;;;;5059121;28;20391;-78
2022/05/02 23:37:38;;;;;;;3.15;1.33;;;;;;;;;;5055687;28;20137;-77
2022/05/02 23:40:06;;;;;;;4.80;1.65;;;;;;;;;;5054081;28;20084;-78
2022/05/02 23:42:36;;;;;;;2.30;1.27;;;;;;;;;;5038852;28;20053;-78
2022/05/02 23:45:24;;;;;;;3.33;1.55;;;;;;;;;;5054575;28;20056;-78
2022/05/02 23:48:10;;;;;;;3.47;1.60;;;;;;;;;;5060190;28;20462;-78
2022/05/02 23:50:54;;;;;;;2.88;1.55;;;;;;;;;;5057271;28;20524;-79
2022/05/02 23:53:47;;;;;;;3.15;1.60;;;;;;;;;;5058706;28;20052;-77
2022/05/02 23:56:33;;;;;;;5.72;1.60;;;;;;;;;;5037601;28;20112;-76
2022/05/02 23:59:20;;;;;;;3.58;1.50;;;;;;;;;;5045374;28;20044;-78
